Time;durP1;ratioP1;P1;durP2;ratioP2;P2;SDS_P1;SDS_P2;PMS_P1;PMS_P2;Temp;Humidity;BMP_temperature;BMP_pressure;BME280_temperature;BME280_humidity;BME280_pressure;Samples;Min_cycle;Max_cycle;Signal;HPM_P1;HPM_P2
2023/10/22 00:01:31;;;;;;;2.87;0.70;;;15.40;84.60;;;;;;5073233;28;20460;-59
2023/10/22 00:03:57;;;;;;;3.90;0.87;;;15.40;84.80;;;;;;5073190;28;20464;-59
2023/10/22 00:06:24;;;;;;;3.93;0.60;;;15.40;84.60;;;;;;5073218;28;20452;-59
2023/10/22 00:08:52;;;;;;;3.10;1.10;;;15.50;85.20;;;;;;5073272;28;20449;-59
2023/10/22 00:11:19;;;;;;;2.17;0.77;;;15.40;85.20;;;;;;5073335;28;20469;-59
2023/10/22 00:13:45;;;;;;;4.17;0.90;;;15.40;85.20;;;;;;5073499;28;20444;-59
2023/10/22 00:16:12;;;;;;;2.93;0.80;;;15.30;85.10;;;;;;5073194;28;20445;-59
2023/10/22 00:18:39;;;;;;;2.10;0.57;;;15.30;85.30;;;;;;5073278;28;20498;-59
2023/10/22 00:21:09;;;;;;;5.07;0.77;;;15.40;86.10;;;;;;5072779;28;20970;-59
2023/10/22 00:23:36;;;;;;;5.80;0.63;;;15.40;86.00;;;;;;5073094;28;20445;-58
2023/10/22 00:26:04;;;;;;;1.17;0.70;;;15.50;86.30;;;;;;5073070;28;20444;-59
2023/10/22 00:28:30;;;;;;;3.07;0.93;;;15.50;86.00;;;;;;5073084;28;20476;-59
2023/10/22 00:30:57;;;;;;;1.33;0.70;;;15.50;85.80;;;;;;5072661;28;20465;-58
2023/10/22 00:33:24;;;;;;;2.20;0.70;;;15.60;86.20;;;;;;5073036;28;20506;-60
2023/10/22 00:35:58;;;;;;;1.30;0.50;;;15.50;86.30;;;;;;5073078;28;20455;-59
2023/10/22 00:38:25;;;;;;;2.00;0.70;;;15.50;86.70;;;;;;5073489;28;20536;-59
2023/10/22 00:40:52;;;;;;;3.07;0.77;;;15.40;86.50;;;;;;5072902;28;20471;-60
2023/10/22 00:43:20;;;;;;;2.03;0.73;;;15.40;86.90;;;;;;5073065;28;20451;-59
2023/10/22 00:45:48;;;;;;;1.67;0.60;;;15.40;87.10;;;;;;5072918;28;20441;-59
2023/10/22 00:48:16;;;;;;;3.57;0.83;;;15.40;87.40;;;;;;5072934;28;20481;-59
2023/10/22 00:50:43;;;;;;;1.53;0.40;;;15.40;88.10;;;;;;5072738;28;20488;-59
2023/10/22 00:53:13;;;;;;;1.20;0.60;;;15.30;88.20;;;;;;5072812;28;20535;-59
2023/10/22 00:55:42;;;;;;;3.90;0.70;;;15.40;88.40;;;;;;5072853;28;20464;-59
2023/10/22 00:58:10;;;;;;;0.97;0.67;;;15.30;89.90;;;;;;5072890;28;20444;-59
2023/10/22 01:00:39;;;;;;;1.60;0.60;;;15.30;88.70;;;;;;5072721;28;20815;-59
2023/10/22 01:03:06;;;;;;;4.23;0.80;;;15.40;89.30;;;;;;5072655;28;20457;-59
2023/10/22 01:05:36;;;;;;;3.10;0.97;;;15.30;89.10;;;;;;5072873;28;20417;-59
2023/10/22 01:08:03;;;;;;;4.13;1.03;;;15.40;89.60;;;;;;5072696;28;20484;-59
2023/10/22 01:10:30;;;;;;;4.10;1.13;;;15.30;89.50;;;;;;5072671;28;20468;-59
2023/10/22 01:12:57;;;;;;;1.77;0.60;;;15.30;89.80;;;;;;5076383;28;20528;-59
2023/10/22 01:15:23;;;;;;;4.57;1.00;;;15.30;90.00;;;;;;5076391;28;20436;-59
2023/10/22 01:17:51;;;;;;;3.07;0.37;;;15.30;90.20;;;;;;5076257;28;20437;-59
2023/10/22 01:20:18;;;;;;;2.50;0.60;;;15.20;90.30;;;;;;5076079;28;20525;-59
2023/10/22 01:22:45;;;;;;;0.97;0.40;;;15.20;90.60;;;;;;5076072;28;20452;-59
2023/10/22 01:25:13;;;;;;;4.77;0.50;;;15.20;90.60;;;;;;5076217;28;20455;-59
2023/10/22 01:27:39;;;;;;;1.10;0.50;;;15.20;91.00;;;;;;5075793;28;21024;-59
2023/10/22 01:30:07;;;;;;;1.27;0.60;;;15.20;91.30;;;;;;5076007;28;20444;-59
2023/10/22 01:32:34;;;;;;;2.77;0.80;;;15.20;91.80;;;;;;5075675;28;20448;-59
2023/10/22 01:35:01;;;;;;;1.70;0.67;;;15.20;91.90;;;;;;5075673;28;20961;-59
2023/10/22 01:37:28;;;;;;;2.03;0.60;;;15.20;92.00;;;;;;5075883;28;20448;-59
2023/10/22 01:39:57;;;;;;;1.87;0.80;;;15.20;92.10;;;;;;5075771;28;20448;-59
2023/10/22 01:42:25;;;;;;;0.97;0.60;;;15.20;92.20;;;;;;5075828;28;20455;-59
2023/10/22 01:44:52;;;;;;;3.07;0.63;;;15.20;92.20;;;;;;5075607;28;20449;-59
2023/10/22 01:47:19;;;;;;;1.80;0.77;;;15.10;92.20;;;;;;5075777;28;20473;-59
2023/10/22 01:49:46;;;;;;;1.23;0.60;;;15.10;92.30;;;;;;5075860;28;20441;-59
2023/10/22 01:52:13;;;;;;;2.60;0.50;;;15.10;92.30;;;;;;5075655;28;20475;-59
2023/10/22 01:54:40;;;;;;;1.73;0.53;;;15.10;92.40;;;;;;5075522;28;20444;-59
2023/10/22 01:57:07;;;;;;;1.77;1.10;;;15.10;92.40;;;;;;5075515;28;20531;-59
2023/10/22 01:59:37;;;;;;;0.60;0.43;;;15.10;92.40;;;;;;5075227;28;20959;-59
2023/10/22 02:02:04;;;;;;;1.20;0.57;;;15.10;92.40;;;;;;5075425;28;20471;-59
2023/10/22 02:04:31;;;;;;;2.53;0.67;;;15.10;92.50;;;;;;5075202;28;20452;-59
2023/10/22 02:06:58;;;;;;;2.20;0.73;;;15.00;92.60;;;;;;5075320;28;20534;-59
2023/10/22 02:09:26;;;;;;;1.80;0.40;;;15.00;92.50;;;;;;5075232;28;20436;-59
2023/10/22 02:11:53;;;;;;;1.63;0.50;;;15.00;92.70;;;;;;5075335;28;20469;-59
2023/10/22 02:14:20;;;;;;;1.50;0.40;;;15.00;92.80;;;;;;5075355;28;20456;-59
2023/10/22 02:16:48;;;;;;;0.93;0.37;;;15.10;92.90;;;;;;5075624;28;20441;-59
2023/10/22 02:19:15;;;;;;;0.80;0.40;;;15.00;93.00;;;;;;5075409;28;20449;-59
2023/10/22 02:21:41;;;;;;;1.10;0.70;;;15.10;93.30;;;;;;5075101;28;20467;-59
2023/10/22 02:24:08;;;;;;;2.07;0.60;;;15.00;93.80;;;;;;5075138;28;20444;-59
2023/10/22 02:26:35;;;;;;;3.23;0.53;;;14.90;94.10;;;;;;5075099;28;20456;-59
2023/10/22 02:29:02;;;;;;;0.73;0.53;;;14.90;94.20;;;;;;5074982;28;20520;-59
2023/10/22 02:31:29;;;;;;;0.70;0.50;;;15.00;94.30;;;;;;5074969;28;20472;-59
2023/10/22 02:34:03;;;;;;;0.87;0.40;;;14.90;94.80;;;;;;5075252;28;20860;-59
2023/10/22 02:36:30;;;;;;;1.47;0.60;;;14.90;94.70;;;;;;5075244;28;20444;-59
2023/10/22 02:38:57;;;;;;;0.80;0.40;;;14.90;95.00;;;;;;5074893;28;20985;-59
2023/10/22 02:41:23;;;;;;;0.90;0.40;;;14.90;95.40;;;;;;5074465;28;20465;-59
2023/10/22 02:43:50;;;;;;;1.70;0.50;;;14.90;95.70;;;;;;5074522;28;20957;-59
2023/10/22 02:46:17;;;;;;;1.60;0.50;;;14.90;95.90;;;;;;5074404;28;20999;-59
2023/10/22 02:48:43;;;;;;;0.73;0.50;;;14.90;96.20;;;;;;5074461;28;20484;-59
2023/10/22 02:51:11;;;;;;;2.27;0.50;;;14.80;96.70;;;;;;5074514;28;20456;-59
2023/10/22 02:53:38;;;;;;;1.23;0.40;;;14.70;97.10;;;;;;5074026;28;20957;-59
2023/10/22 02:56:07;;;;;;;4.33;0.60;;;14.70;97.20;;;;;;5074937;28;20441;-59
2023/10/22 02:58:34;;;;;;;0.93;0.60;;;14.70;97.70;;;;;;5074054;28;20518;-59
2023/10/22 03:01:04;;;;;;;1.23;0.50;;;14.70;97.90;;;;;;5074151;28;20469;-58
2023/10/22 03:03:31;;;;;;;2.50;0.80;;;14.70;98.00;;;;;;5073890;28;20492;-58
2023/10/22 03:05:58;;;;;;;1.70;0.73;;;14.60;98.10;;;;;;5074283;28;20441;-58
2023/10/22 03:08:27;;;;;;;3.60;0.90;;;14.60;98.20;;;;;;5074085;28;20512;-58
2023/10/22 03:10:54;;;;;;;1.17;0.30;;;14.70;98.20;;;;;;5074178;28;20460;-58
2023/10/22 03:13:21;;;;;;;2.77;0.60;;;14.60;98.10;;;;;;5074086;28;20455;-58
2023/10/22 03:15:47;;;;;;;2.50;1.17;;;14.60;98.30;;;;;;5074043;28;20535;-59
2023/10/22 03:18:14;;;;;;;1.80;0.60;;;14.70;98.40;;;;;;5074056;28;20441;-58
2023/10/22 03:20:41;;;;;;;1.50;0.70;;;14.60;98.40;;;;;;5074688;28;20503;-59
2023/10/22 03:23:08;;;;;;;1.23;0.50;;;14.60;98.40;;;;;;5074234;28;20453;-58
2023/10/22 03:25:37;;;;;;;2.87;0.50;;;14.50;98.60;;;;;;5073806;28;20449;-59
2023/10/22 03:28:04;;;;;;;1.77;0.50;;;14.50;98.80;;;;;;5073470;28;20985;-58
2023/10/22 03:30:31;;;;;;;0.80;0.40;;;14.50;98.80;;;;;;5074338;28;20464;-59
2023/10/22 03:32:57;;;;;;;0.97;0.50;;;14.40;98.60;;;;;;5073758;28;20436;-58
2023/10/22 03:35:24;;;;;;;1.40;0.40;;;14.50;98.60;;;;;;5073263;28;20535;-58
2023/10/22 03:37:51;;;;;;;1.00;0.40;;;14.50;98.60;;;;;;5074150;28;20437;-58
2023/10/22 03:40:17;;;;;;;1.20;0.40;;;14.60;98.50;;;;;;5073694;28;20468;-58
2023/10/22 03:42:46;;;;;;;1.93;1.10;;;14.60;98.30;;;;;;5073477;28;20441;-58
2023/10/22 03:45:13;;;;;;;3.23;0.77;;;14.60;98.30;;;;;;5073471;28;20453;-58
2023/10/22 03:47:40;;;;;;;4.23;0.40;;;14.60;98.50;;;;;;5074226;28;20453;-58
2023/10/22 03:50:08;;;;;;;1.23;0.30;;;14.60;98.50;;;;;;5073401;28;20468;-59
2023/10/22 03:52:34;;;;;;;0.80;0.50;;;14.50;98.60;;;;;;5073417;28;20441;-59
2023/10/22 03:55:01;;;;;;;2.50;0.40;;;14.50;98.70;;;;;;5073389;28;20448;-59
2023/10/22 03:57:28;;;;;;;5.17;0.50;;;14.60;98.80;;;;;;5073443;28;20448;-59
2023/10/22 03:59:56;;;;;;;1.87;0.53;;;14.60;98.70;;;;;;5073352;28;20433;-58
2023/10/22 04:02:23;;;;;;;1.50;0.40;;;14.60;98.80;;;;;;5073344;28;20440;-58
2023/10/22 04:04:49;;;;;;;0.50;0.40;;;14.60;98.80;;;;;;5072935;28;20518;-58
2023/10/22 04:07:16;;;;;;;1.80;0.60;;;14.60;99.00;;;;;;5073260;28;20444;-59
2023/10/22 04:09:43;;;;;;;2.70;0.60;;;14.60;99.10;;;;;;5073199;28;20483;-58
2023/10/22 04:12:09;;;;;;;2.47;0.77;;;14.60;99.20;;;;;;5073131;28;20472;-59
2023/10/22 04:14:36;;;;;;;0.50;0.40;;;14.60;99.20;;;;;;5073667;28;20449;-59
2023/10/22 04:17:05;;;;;;;2.40;0.60;;;14.60;99.40;;;;;;5072897;28;20931;-59
2023/10/22 04:19:31;;;;;;;1.43;0.67;;;14.60;99.40;;;;;;5073117;28;20447;-58
2023/10/22 04:21:58;;;;;;;1.03;0.50;;;14.60;99.50;;;;;;5073063;28;20811;-58
2023/10/22 04:24:25;;;;;;;1.53;0.50;;;14.60;99.50;;;;;;5072790;28;20996;-58
2023/10/22 04:26:51;;;;;;;5.53;0.30;;;14.60;99.60;;;;;;5072831;28;21025;-58
2023/10/22 04:29:18;;;;;;;0.63;0.30;;;14.70;99.70;;;;;;5073028;28;20485;-58
2023/10/22 04:31:45;;;;;;;1.13;0.40;;;14.60;99.70;;;;;;5072442;28;20468;-58
2023/10/22 04:34:13;;;;;;;0.60;0.40;;;14.70;99.70;;;;;;5073066;28;20456;-58
2023/10/22 04:36:40;;;;;;;1.60;0.40;;;14.70;99.90;;;;;;5072751;28;20844;-59
2023/10/22 04:39:06;;;;;;;0.97;0.30;;;14.70;99.90;;;;;;5073263;28;20439;-58
2023/10/22 04:41:33;;;;;;;0.73;0.30;;;14.60;99.90;;;;;;5072871;28;20464;-58
2023/10/22 04:44:01;;;;;;;0.57;0.50;;;14.60;99.90;;;;;;5073011;28;20451;-58
2023/10/22 04:46:28;;;;;;;3.67;0.70;;;14.50;99.90;;;;;;5074366;28;20854;-57
2023/10/22 04:48:55;;;;;;;0.40;0.30;;;14.40;99.90;;;;;;5076642;28;20480;-58
2023/10/22 04:51:24;;;;;;;1.90;0.50;;;14.30;99.90;;;;;;5076293;28;20838;-57
2023/10/22 04:53:50;;;;;;;2.00;0.40;;;14.30;99.90;;;;;;5076746;28;20448;-57
2023/10/22 04:56:17;;;;;;;1.60;0.60;;;14.30;99.90;;;;;;5076579;28;20448;-57
2023/10/22 04:58:43;;;;;;;1.07;0.70;;;14.20;99.90;;;;;;5076595;28;20439;-58
2023/10/22 05:01:10;;;;;;;1.17;0.50;;;14.20;99.90;;;;;;5077198;28;20465;-59
2023/10/22 05:03:37;;;;;;;2.30;0.50;;;14.20;99.90;;;;;;5076195;28;20452;-59
2023/10/22 05:06:06;;;;;;;2.00;0.40;;;14.20;99.90;;;;;;5076420;28;20454;-60
2023/10/22 05:08:36;;;;;;;0.90;0.40;;;14.20;99.90;;;;;;5076247;28;20484;-59
2023/10/22 05:11:05;;;;;;;1.10;0.80;;;14.10;99.90;;;;;;5076271;28;20500;-59
2023/10/22 05:13:32;;;;;;;1.30;1.00;;;14.10;99.90;;;;;;5076259;28;20855;-59
2023/10/22 05:15:59;;;;;;;0.60;0.50;;;14.10;99.90;;;;;;5076171;28;20969;-60
2023/10/22 05:18:26;;;;;;;2.73;0.50;;;14.10;99.90;;;;;;5076184;28;20437;-60
2023/10/22 05:20:52;;;;;;;0.80;0.40;;;14.10;99.90;;;;;;5076107;28;20518;-60
2023/10/22 05:23:19;;;;;;;0.53;0.43;;;14.10;99.90;;;;;;5076272;28;20444;-60
2023/10/22 05:25:47;;;;;;;0.90;0.40;;;14.10;99.90;;;;;;5075857;28;20528;-60
2023/10/22 05:28:14;;;;;;;1.43;0.73;;;14.10;99.90;;;;;;5076027;28;20472;-60
2023/10/22 05:30:41;;;;;;;3.30;0.40;;;14.10;99.90;;;;;;5075997;28;20477;-59
2023/10/22 05:33:08;;;;;;;0.77;0.40;;;14.00;98.40;;;;;;5076107;28;20440;-59
2023/10/22 05:35:36;;;;;;;0.77;0.40;;;14.00;98.60;;;;;;5075921;28;20452;-59
2023/10/22 05:38:03;;;;;;;1.50;0.57;;;14.00;98.20;;;;;;5075582;28;20437;-59
2023/10/22 05:40:35;;;;;;;0.50;0.50;;;14.00;98.40;;;;;;5075855;28;20511;-59
2023/10/22 05:43:03;;;;;;;0.73;0.47;;;14.00;98.30;;;;;;5075827;28;20437;-59
2023/10/22 05:45:30;;;;;;;1.57;0.40;;;14.00;98.20;;;;;;5075717;28;20883;-59
2023/10/22 05:47:57;;;;;;;0.40;0.30;;;14.00;98.30;;;;;;5075780;28;20472;-59
2023/10/22 05:50:24;;;;;;;2.20;0.53;;;14.00;98.20;;;;;;5075197;28;20563;-59
2023/10/22 05:52:51;;;;;;;1.07;0.47;;;14.00;98.20;;;;;;5075270;28;20532;-59
2023/10/22 05:55:17;;;;;;;1.47;0.40;;;14.00;98.00;;;;;;5075273;28;20955;-59
2023/10/22 05:57:45;;;;;;;2.50;0.60;;;14.00;98.00;;;;;;5075460;28;20444;-59
2023/10/22 06:00:14;;;;;;;1.23;0.40;;;14.00;98.30;;;;;;5075427;28;20495;-60
2023/10/22 06:02:41;;;;;;;2.00;1.03;;;14.00;98.30;;;;;;5075242;28;20441;-59
2023/10/22 06:05:08;;;;;;;1.07;0.60;;;14.00;98.30;;;;;;5076222;28;20554;-59
2023/10/22 06:07:35;;;;;;;0.83;0.60;;;14.00;98.30;;;;;;5075371;28;20441;-59
2023/10/22 06:10:02;;;;;;;1.20;0.40;;;14.00;98.10;;;;;;5075168;28;20480;-60
2023/10/22 06:12:29;;;;;;;1.10;0.70;;;14.00;98.10;;;;;;5075308;28;20447;-59
2023/10/22 06:14:55;;;;;;;0.40;0.40;;;14.00;98.10;;;;;;5075240;28;20436;-60
2023/10/22 06:17:23;;;;;;;0.80;0.40;;;14.00;97.90;;;;;;5075125;28;20447;-59
2023/10/22 06:19:50;;;;;;;4.33;0.60;;;14.00;97.70;;;;;;5075111;28;20433;-60
2023/10/22 06:22:17;;;;;;;0.60;0.40;;;14.10;97.70;;;;;;5074969;28;20468;-59
2023/10/22 06:24:43;;;;;;;1.10;0.40;;;14.10;97.70;;;;;;5075197;28;20519;-60
2023/10/22 06:27:10;;;;;;;0.47;0.47;;;14.10;97.60;;;;;;5075110;28;20441;-60
2023/10/22 06:29:37;;;;;;;6.20;0.80;;;14.10;97.50;;;;;;5074883;28;20480;-60
2023/10/22 06:32:04;;;;;;;1.13;0.43;;;14.10;97.50;;;;;;5074879;28;20457;-60
2023/10/22 06:34:33;;;;;;;0.80;0.40;;;14.10;97.60;;;;;;5074565;28;20969;-59
2023/10/22 06:37:00;;;;;;;1.27;0.67;;;14.10;97.50;;;;;;5074852;28;20451;-60
2023/10/22 06:39:27;;;;;;;2.10;0.60;;;14.10;97.60;;;;;;5074724;28;20448;-59
2023/10/22 06:41:53;;;;;;;1.37;0.67;;;14.10;97.50;;;;;;5074657;28;20473;-59
2023/10/22 06:44:20;;;;;;;0.60;0.50;;;14.10;97.70;;;;;;5074592;28;20451;-59
2023/10/22 06:46:47;;;;;;;0.97;0.70;;;14.10;97.70;;;;;;5074523;28;20441;-59
2023/10/22 06:49:13;;;;;;;0.63;0.50;;;14.10;97.70;;;;;;5074551;28;20480;-59
2023/10/22 06:51:41;;;;;;;1.00;0.60;;;14.10;97.60;;;;;;5074182;28;20473;-60
2023/10/22 06:54:08;;;;;;;1.30;0.60;;;14.10;97.60;;;;;;5074083;28;20973;-60
2023/10/22 06:56:35;;;;;;;0.70;0.50;;;14.10;97.60;;;;;;5074513;28;20459;-60
2023/10/22 06:59:03;;;;;;;2.93;2.10;;;14.20;97.70;;;;;;5074508;28;20444;-60
2023/10/22 07:01:30;;;;;;;1.73;0.37;;;14.20;97.60;;;;;;5074333;28;20467;-60
2023/10/22 07:03:56;;;;;;;3.13;0.60;;;14.20;97.70;;;;;;5074138;28;20526;-60
2023/10/22 07:06:23;;;;;;;1.73;0.50;;;14.20;97.50;;;;;;5073858;28;20950;-59
2023/10/22 07:08:51;;;;;;;1.27;0.40;;;14.30;97.40;;;;;;5073125;28;20444;-60
2023/10/22 07:11:18;;;;;;;2.37;0.43;;;14.30;97.10;;;;;;5073955;28;20551;-60
2023/10/22 07:13:45;;;;;;;4.13;0.50;;;14.30;97.30;;;;;;5074435;28;20440;-60
2023/10/22 07:16:11;;;;;;;0.50;0.40;;;14.40;97.40;;;;;;5073916;28;20449;-60
2023/10/22 07:18:39;;;;;;;1.40;0.73;;;14.40;97.30;;;;;;5073763;28;20445;-60
2023/10/22 07:21:05;;;;;;;0.80;0.40;;;14.40;97.20;;;;;;5074057;28;20491;-60
2023/10/22 07:23:32;;;;;;;1.00;0.53;;;14.40;97.20;;;;;;5073842;28;20448;-60
2023/10/22 07:26:01;;;;;;;0.90;0.60;;;14.50;97.30;;;;;;5073784;28;20449;-59
2023/10/22 07:28:27;;;;;;;0.93;0.50;;;14.50;97.00;;;;;;5073679;28;20441;-59
2023/10/22 07:30:54;;;;;;;2.40;0.70;;;14.50;96.90;;;;;;5073527;28;20488;-59
2023/10/22 07:33:21;;;;;;;5.03;1.00;;;14.50;97.10;;;;;;5073944;28;20441;-60
2023/10/22 07:35:54;;;;;;;2.30;0.80;;;14.50;97.30;;;;;;5073659;28;20456;-59
2023/10/22 07:38:21;;;;;;;1.77;0.70;;;14.50;97.20;;;;;;5073739;28;20445;-60
2023/10/22 07:40:50;;;;;;;1.03;0.77;;;14.50;97.10;;;;;;5073630;28;20456;-60
2023/10/22 07:43:19;;;;;;;1.50;0.60;;;14.50;97.10;;;;;;5073528;28;20498;-60
2023/10/22 07:45:46;;;;;;;1.00;0.73;;;14.60;97.00;;;;;;5073191;28;20449;-60
2023/10/22 07:48:13;;;;;;;1.43;0.67;;;14.50;96.80;;;;;;5073568;28;20444;-60
2023/10/22 07:50:40;;;;;;;0.63;0.60;;;14.60;97.10;;;;;;5073321;28;20488;-60
2023/10/22 07:53:06;;;;;;;1.30;0.67;;;14.60;97.40;;;;;;5073470;28;20444;-60
2023/10/22 07:55:33;;;;;;;1.07;0.90;;;14.70;97.30;;;;;;5073466;28;20444;-60
2023/10/22 07:58:00;;;;;;;1.67;0.60;;;14.70;97.10;;;;;;5073469;28;20477;-59
2023/10/22 08:00:28;;;;;;;1.63;0.80;;;14.70;97.10;;;;;;5073096;28;21001;-60
2023/10/22 08:02:56;;;;;;;1.70;0.40;;;14.70;97.00;;;;;;5073183;28;21115;-60
2023/10/22 08:05:23;;;;;;;1.37;0.50;;;14.70;97.10;;;;;;5073125;28;20745;-59
2023/10/22 08:07:50;;;;;;;1.23;0.60;;;14.70;96.90;;;;;;5073343;28;20444;-59
2023/10/22 08:10:17;;;;;;;1.90;0.83;;;14.80;96.80;;;;;;5073231;28;20880;-60
2023/10/22 08:12:43;;;;;;;1.67;1.30;;;14.80;96.70;;;;;;5073089;28;20942;-59
2023/10/22 08:15:11;;;;;;;6.53;1.63;;;14.90;96.70;;;;;;5073322;28;20443;-59
2023/10/22 08:17:39;;;;;;;2.30;0.60;;;15.00;96.40;;;;;;5073493;28;20441;-59
2023/10/22 08:20:07;;;;;;;3.10;0.70;;;15.10;96.00;;;;;;5073811;28;20846;-60
2023/10/22 08:22:33;;;;;;;1.07;0.43;;;15.10;95.80;;;;;;5077547;28;20467;-60
2023/10/22 08:25:00;;;;;;;1.40;0.63;;;15.10;95.60;;;;;;5077258;28;20467;-60
2023/10/22 08:27:27;;;;;;;2.43;0.80;;;15.20;95.70;;;;;;5077309;28;20468;-60
2023/10/22 08:29:54;;;;;;;1.47;0.50;;;15.30;95.80;;;;;;5077287;28;20491;-60
2023/10/22 08:32:21;;;;;;;0.67;0.40;;;15.50;95.80;;;;;;5077258;28;20476;-59
2023/10/22 08:34:49;;;;;;;1.53;0.63;;;15.60;95.80;;;;;;5077181;28;20432;-60
2023/10/22 08:37:16;;;;;;;5.23;1.40;;;15.70;95.80;;;;;;5077197;28;20448;-60
2023/10/22 08:39:43;;;;;;;1.67;0.73;;;15.70;95.80;;;;;;5075824;28;20834;-59
2023/10/22 08:42:13;;;;;;;1.33;0.73;;;15.80;95.60;;;;;;5076971;28;21033;-60
2023/10/22 08:44:45;;;;;;;0.60;0.50;;;15.90;95.90;;;;;;5077106;28;20942;-59
2023/10/22 08:47:12;;;;;;;1.13;0.53;;;16.00;95.90;;;;;;5076756;28;20898;-59
2023/10/22 08:49:40;;;;;;;0.90;0.60;;;16.10;95.60;;;;;;5077076;28;20537;-59
2023/10/22 08:52:09;;;;;;;0.50;0.40;;;16.20;95.50;;;;;;5076707;28;20849;-59
2023/10/22 08:54:36;;;;;;;0.83;0.57;;;16.30;95.40;;;;;;5076818;28;20814;-60
2023/10/22 08:57:04;;;;;;;1.13;0.40;;;16.30;95.10;;;;;;5076711;28;20856;-60
2023/10/22 08:59:30;;;;;;;1.37;0.47;;;16.30;94.80;;;;;;5076906;28;20467;-60
2023/10/22 09:01:57;;;;;;;1.97;0.60;;;16.40;94.90;;;;;;5076427;28;20460;-60
2023/10/22 09:04:25;;;;;;;0.60;0.50;;;16.40;94.90;;;;;;5076439;28;20456;-59
2023/10/22 09:06:53;;;;;;;1.27;0.50;;;16.40;94.60;;;;;;5076427;28;20440;-59
2023/10/22 09:09:30;;;;;;;0.60;0.40;;;16.50;94.70;;;;;;5076431;28;20451;-59
2023/10/22 09:11:58;;;;;;;0.83;0.60;;;16.50;94.90;;;;;;5076308;28;20467;-59
2023/10/22 09:14:25;;;;;;;2.27;0.70;;;16.50;94.60;;;;;;5076365;28;20451;-59
2023/10/22 09:16:52;;;;;;;1.17;1.07;;;16.50;94.50;;;;;;5076507;28;20447;-59
2023/10/22 09:19:34;;;;;;;1.40;0.60;;;16.50;94.40;;;;;;5076019;28;20947;-59
2023/10/22 09:22:01;;;;;;;2.23;0.60;;;16.50;94.10;;;;;;5076337;28;20491;-59
2023/10/22 09:24:29;;;;;;;0.60;0.40;;;16.50;94.10;;;;;;5076235;28;20468;-59
2023/10/22 09:26:56;;;;;;;1.20;0.70;;;16.50;94.20;;;;;;5075833;28;20452;-60
2023/10/22 09:29:23;;;;;;;0.80;0.50;;;16.50;94.20;;;;;;5075714;28;20439;-60
2023/10/22 09:31:50;;;;;;;0.70;0.53;;;16.60;94.30;;;;;;5075292;28;20651;-60
2023/10/22 09:34:27;;;;;;;3.70;0.50;;;16.50;93.90;;;;;;5075831;28;20996;-60
2023/10/22 09:36:54;;;;;;;0.50;0.40;;;16.50;93.80;;;;;;5075706;28;20436;-59
2023/10/22 09:39:36;;;;;;;1.50;0.70;;;16.60;94.00;;;;;;5075879;28;20437;-59
2023/10/22 09:42:04;;;;;;;0.90;0.60;;;16.50;93.70;;;;;;5075801;28;20471;-59
2023/10/22 09:44:31;;;;;;;0.77;0.50;;;16.60;93.60;;;;;;5075818;28;20877;-60
2023/10/22 09:47:00;;;;;;;1.57;0.77;;;16.60;93.80;;;;;;5075822;28;20444;-59
2023/10/22 09:49:29;;;;;;;1.07;0.60;;;16.60;93.80;;;;;;5075687;28;20443;-59
2023/10/22 09:51:59;;;;;;;2.47;1.10;;;16.60;93.90;;;;;;5075656;28;20496;-59
2023/10/22 09:54:36;;;;;;;2.60;0.60;;;16.60;93.80;;;;;;5075677;28;20429;-60
2023/10/22 09:57:08;;;;;;;1.70;0.80;;;16.60;93.60;;;;;;5076388;28;20844;-59
2023/10/22 09:59:35;;;;;;;1.47;0.77;;;16.60;93.70;;;;;;5075223;28;20909;-59
2023/10/22 10:02:04;;;;;;;1.57;1.00;;;16.50;92.70;;;;;;5075431;28;20460;-59
2023/10/22 10:04:32;;;;;;;2.47;0.97;;;16.50;93.00;;;;;;5075142;28;20457;-59
2023/10/22 10:07:01;;;;;;;3.00;0.60;;;16.50;93.10;;;;;;5075338;28;20452;-60
2023/10/22 10:09:28;;;;;;;2.10;0.40;;;16.50;92.90;;;;;;5074925;28;20953;-60
2023/10/22 10:11:57;;;;;;;2.73;0.60;;;16.50;92.80;;;;;;5075306;28;20461;-59
2023/10/22 10:14:41;;;;;;;1.30;0.50;;;16.60;92.80;;;;;;5075190;28;20449;-59
2023/10/22 10:17:09;;;;;;;1.90;0.70;;;16.60;92.70;;;;;;5075185;28;20421;-59
2023/10/22 10:19:36;;;;;;;2.90;2.10;;;16.60;92.80;;;;;;5075088;28;20444;-60
2023/10/22 10:22:03;;;;;;;2.00;0.90;;;16.50;92.80;;;;;;5075041;28;20468;-59
2023/10/22 10:24:31;;;;;;;2.67;1.00;;;16.60;93.40;;;;;;5075036;28;20452;-59
2023/10/22 10:27:25;;;;;;;1.37;1.00;;;16.70;93.30;;;;;;5074900;28;20463;-59
2023/10/22 10:30:20;;;;;;;1.00;0.60;;;16.90;93.70;;;;;;5074935;28;20467;-59
2023/10/22 10:32:49;;;;;;;1.17;0.77;;;17.00;93.70;;;;;;5074798;28;20502;-60
2023/10/22 10:35:17;;;;;;;2.17;1.00;;;17.20;93.20;;;;;;5074666;28;20466;-60
2023/10/22 10:38:14;;;;;;;1.07;0.60;;;17.40;92.50;;;;;;5074515;28;20494;-59
2023/10/22 10:40:42;;;;;;;0.70;0.53;;;17.50;92.00;;;;;;5072382;28;20469;-60
2023/10/22 10:43:08;;;;;;;0.70;0.50;;;17.60;91.50;;;;;;5073648;28;20973;-60
2023/10/22 10:45:40;;;;;;;0.70;0.50;;;17.80;91.20;;;;;;5073928;28;20468;-60
2023/10/22 10:48:07;;;;;;;4.73;0.87;;;18.00;90.50;;;;;;5074073;28;20426;-60
2023/10/22 10:50:33;;;;;;;2.13;0.40;;;18.10;90.20;;;;;;5074271;28;20485;-60
2023/10/22 10:53:02;;;;;;;2.05;0.50;;;18.30;89.70;;;;;;5074322;28;20340;-59
2023/10/22 10:55:32;;;;;;;1.80;0.90;;;18.30;89.00;;;;;;5074014;28;20252;-58
2023/10/22 10:58:01;;;;;;;3.03;0.50;;;18.40;90.00;;;;;;5074426;28;20444;-59
2023/10/22 11:00:30;;;;;;;1.60;0.67;;;18.50;87.50;;;;;;5074427;28;20523;-59
2023/10/22 11:03:00;;;;;;;0.70;0.70;;;18.70;85.70;;;;;;5074183;28;20559;-58
2023/10/22 11:05:37;;;;;;;2.10;0.60;;;18.90;84.30;;;;;;5074187;28;20426;-59
2023/10/22 11:08:06;;;;;;;7.30;0.70;;;19.40;83.40;;;;;;5074181;28;20428;-59
2023/10/22 11:10:33;;;;;;;5.20;0.80;;;19.90;80.80;;;;;;5073980;28;20523;-59
2023/10/22 11:13:04;;;;;;;1.07;0.70;;;20.20;79.30;;;;;;5074287;28;20453;-59
2023/10/22 11:15:32;;;;;;;1.30;0.60;;;20.40;77.70;;;;;;5074189;28;20472;-59
2023/10/22 11:18:03;;;;;;;2.33;1.00;;;20.20;75.20;;;;;;5073934;28;20476;-59
2023/10/22 11:20:30;;;;;;;1.70;0.83;;;20.10;76.10;;;;;;5074012;28;20464;-59
2023/10/22 11:22:57;;;;;;;1.23;0.50;;;19.90;76.90;;;;;;5073893;28;20447;-59
2023/10/22 11:25:25;;;;;;;1.23;0.67;;;20.00;78.20;;;;;;5074133;28;20483;-59
2023/10/22 11:27:53;;;;;;;3.97;0.63;;;20.10;77.80;;;;;;5073882;28;20456;-59
2023/10/22 11:30:36;;;;;;;0.50;0.50;;;20.20;78.40;;;;;;5073244;28;21037;-59
2023/10/22 11:33:06;;;;;;;1.57;0.60;;;20.50;77.80;;;;;;5073681;28;20456;-59
2023/10/22 11:35:33;;;;;;;0.90;0.40;;;20.60;76.80;;;;;;5073643;28;20507;-59
2023/10/22 11:37:59;;;;;;;2.40;0.60;;;20.70;75.70;;;;;;5073641;28;20453;-59
2023/10/22 11:40:28;;;;;;;2.30;0.60;;;20.60;75.00;;;;;;5073494;28;20580;-59
2023/10/22 11:42:55;;;;;;;2.10;0.77;;;20.50;76.50;;;;;;5073580;28;20445;-59
2023/10/22 11:45:22;;;;;;;1.00;0.67;;;20.70;77.10;;;;;;5073704;28;20452;-59
2023/10/22 11:47:49;;;;;;;1.37;0.50;;;21.00;75.50;;;;;;5073681;28;20467;-60
2023/10/22 11:50:17;;;;;;;0.70;0.30;;;21.10;74.20;;;;;;5073511;28;20850;-59
2023/10/22 11:52:51;;;;;;;0.93;0.30;;;20.90;74.00;;;;;;5073901;28;20444;-59
2023/10/22 11:55:19;;;;;;;1.20;0.30;;;21.00;75.30;;;;;;5073285;28;20449;-59
2023/10/22 11:57:46;;;;;;;0.47;0.30;;;21.00;74.80;;;;;;5073484;28;20448;-59
2023/10/22 12:00:14;;;;;;;0.60;0.40;;;20.90;74.80;;;;;;5073383;28;20476;-59
2023/10/22 12:02:41;;;;;;;0.60;0.30;;;20.70;76.10;;;;;;5073358;28;20445;-59
2023/10/22 12:05:10;;;;;;;0.37;0.33;;;20.80;77.00;;;;;;5073382;28;20425;-59
2023/10/22 12:07:38;;;;;;;0.70;0.50;;;20.70;75.00;;;;;;5073058;28;20927;-59
2023/10/22 12:10:06;;;;;;;0.50;0.30;;;20.60;75.40;;;;;;5073353;28;20485;-60
2023/10/22 12:12:32;;;;;;;0.63;0.30;;;20.50;75.00;;;;;;5073446;28;20491;-59
2023/10/22 12:14:59;;;;;;;0.83;0.40;;;20.60;77.00;;;;;;5073307;28;20448;-59
2023/10/22 12:17:26;;;;;;;0.40;0.30;;;20.60;75.70;;;;;;5073599;28;20441;-59
2023/10/22 12:19:53;;;;;;;0.60;0.50;;;20.60;76.00;;;;;;5073258;28;20448;-59
2023/10/22 12:22:20;;;;;;;0.50;0.40;;;20.60;76.50;;;;;;5073234;28;20483;-60
2023/10/22 12:24:51;;;;;;;0.40;0.30;;;20.60;77.10;;;;;;5073197;28;20449;-59
2023/10/22 12:27:18;;;;;;;3.70;0.40;;;20.70;77.50;;;;;;5073201;28;20437;-59
2023/10/22 12:29:45;;;;;;;1.30;0.80;;;21.10;76.70;;;;;;5073419;28;20440;-59
2023/10/22 12:32:11;;;;;;;0.53;0.30;;;21.40;74.10;;;;;;5072965;28;20488;-59
2023/10/22 12:34:38;;;;;;;0.40;0.40;;;21.50;74.50;;;;;;5073110;28;20441;-59
2023/10/22 12:37:05;;;;;;;1.57;0.30;;;21.80;72.50;;;;;;5072898;28;20445;-59
2023/10/22 12:39:31;;;;;;;1.20;0.50;;;22.00;71.50;;;;;;5073189;28;20456;-59
2023/10/22 12:41:59;;;;;;;1.57;0.40;;;22.00;71.80;;;;;;5073008;28;20483;-59
2023/10/22 12:44:26;;;;;;;1.80;0.70;;;21.90;72.40;;;;;;5072923;28;20448;-59
2023/10/22 12:46:53;;;;;;;0.93;0.70;;;21.70;72.50;;;;;;5073014;28;20452;-60
2023/10/22 12:49:20;;;;;;;0.40;0.40;;;21.60;72.80;;;;;;5072922;28;20506;-59
2023/10/22 12:51:46;;;;;;;1.43;0.40;;;21.50;72.80;;;;;;5072856;28;20480;-59